<?xml version="1.0" encoding="UTF-8" standalone="no" ?>
<gpx xmlns="http://www.topografix.com/GPX/1/1" xmlns:xsi="http://www.w3.org/2001/XMLSchema-instance" xsi:schemaLocation="http://www.topografix.com/GPX/1/1 http://www.topografix.com/GPX/1/1/gpx.xsd" version="1.1" creator="VisuGPX - https://www.visugpx.com">
  <metadata>
    <name>queyras AVF Antony</name>
    <desc><![CDATA[AVF Antony juillet aout 2017 Queyras]]></desc>
  </metadata>
  <trk>
    <name><![CDATA[Queyras 2 ville vieille ceillac]]></name>
    <trkseg>
      <trkpt lat="44.7542" lon="6.79319">
        <ele>1396</ele>
        <time>2016-10-29T00:02:09+02:00</time>
      </trkpt>
      <trkpt lat="44.75316" lon="6.79349">
        <ele>1458</ele>
        <time>2016-10-29T00:02:14+02:00</time>
      </trkpt>
      <trkpt lat="44.75231" lon="6.79194">
        <ele>1468</ele>
        <time>2016-10-29T00:02:19+02:00</time>
      </trkpt>
      <trkpt lat="44.74884" lon="6.79267">
        <ele>1553</ele>
        <time>2016-10-29T00:02:24+02:00</time>
      </trkpt>
      <trkpt lat="44.74725" lon="6.79383">
        <ele>1582</ele>
        <time>2016-10-29T00:02:29+02:00</time>
      </trkpt>
      <trkpt lat="44.74823" lon="6.79576">
        <ele>1682</ele>
        <time>2016-10-29T00:02:34+02:00</time>
      </trkpt>
      <trkpt lat="44.7456" lon="6.79812">
        <ele>1670</ele>
        <time>2016-10-29T00:02:39+02:00</time>
      </trkpt>
      <trkpt lat="44.74359" lon="6.79727">
        <ele>1697</ele>
        <time>2016-10-29T00:02:44+02:00</time>
      </trkpt>
      <trkpt lat="44.74" lon="6.79821">
        <ele>1779</ele>
        <time>2016-10-29T00:02:49+02:00</time>
      </trkpt>
      <trkpt lat="44.73616" lon="6.80139">
        <ele>1867</ele>
        <time>2016-10-29T00:02:54+02:00</time>
      </trkpt>
      <trkpt lat="44.72933" lon="6.80263">
        <ele>1934</ele>
        <time>2016-10-29T00:02:59+02:00</time>
      </trkpt>
      <trkpt lat="44.72445" lon="6.80628">
        <ele>2050</ele>
        <time>2016-10-29T00:03:04+02:00</time>
      </trkpt>
      <trkpt lat="44.71884" lon="6.8028">
        <ele>2113</ele>
        <time>2016-10-29T00:03:09+02:00</time>
      </trkpt>
      <trkpt lat="44.71176" lon="6.80486">
        <ele>2221</ele>
        <time>2016-10-29T00:03:14+02:00</time>
      </trkpt>
      <trkpt lat="44.7114" lon="6.80229">
        <ele>2263</ele>
        <time>2016-10-29T00:03:19+02:00</time>
      </trkpt>
      <trkpt lat="44.70749" lon="6.8028">
        <ele>2290</ele>
        <time>2016-10-29T00:03:24+02:00</time>
      </trkpt>
      <trkpt lat="44.70627" lon="6.80538">
        <ele>2316</ele>
        <time>2016-10-29T00:03:29+02:00</time>
      </trkpt>
      <trkpt lat="44.69602" lon="6.80881">
        <ele>2298</ele>
        <time>2016-10-29T00:03:34+02:00</time>
      </trkpt>
      <trkpt lat="44.68968" lon="6.80624">
        <ele>2301</ele>
        <time>2016-10-29T00:03:39+02:00</time>
      </trkpt>
      <trkpt lat="44.68699" lon="6.80606">
        <ele>2206</ele>
        <time>2016-10-29T00:03:44+02:00</time>
      </trkpt>
      <trkpt lat="44.6815" lon="6.80126">
        <ele>2055</ele>
        <time>2016-10-29T00:03:49+02:00</time>
      </trkpt>
      <trkpt lat="44.67637" lon="6.79439">
        <ele>1832</ele>
        <time>2016-10-29T00:03:54+02:00</time>
      </trkpt>
      <trkpt lat="44.6743" lon="6.78701">
        <ele>1789</ele>
        <time>2016-10-29T00:03:59+02:00</time>
      </trkpt>
      <trkpt lat="44.67112" lon="6.77963">
        <ele>1694</ele>
        <time>2016-10-29T00:04:04+02:00</time>
      </trkpt>
      <trkpt lat="44.67076" lon="6.77173">
        <ele>1665</ele>
        <time>2016-10-29T00:04:09+02:00</time>
      </trkpt>
      <trkpt lat="44.67076" lon="6.77173">
        <ele>1665</ele>
        <time>2016-10-29T00:04:14+02:00</time>
      </trkpt>
    </trkseg>
  </trk>
</gpx>